createdAt,value
2019-02-16T00:00:05.702Z,8.70
2019-02-16T00:02:34.095Z,8.73
2019-02-16T00:05:02.600Z,8.33
2019-02-16T00:07:31.126Z,10.20
2019-02-16T00:09:59.531Z,10.13
2019-02-16T00:12:27.932Z,11.83
2019-02-16T00:14:56.498Z,9.83
2019-02-16T00:17:24.908Z,7.40
2019-02-16T00:19:53.316Z,8.13
2019-02-16T00:22:21.939Z,9.10
2019-02-16T00:24:50.340Z,8.33
2019-02-16T00:27:18.749Z,10.23
2019-02-16T00:29:47.172Z,11.33
2019-02-16T00:32:15.714Z,12.00
2019-02-16T00:34:44.186Z,12.00
2019-02-16T00:37:13.018Z,8.63
2019-02-16T00:39:41.450Z,8.73
2019-02-16T00:42:09.848Z,10.80
2019-02-16T00:44:38.444Z,9.33
2019-02-16T00:47:09.230Z,8.87
2019-02-16T00:49:36.957Z,12.73
2019-02-16T00:52:05.543Z,9.17
2019-02-16T00:54:33.936Z,13.73
2019-02-16T00:57:02.332Z,11.57
2019-02-16T00:59:30.829Z,11.43
2019-02-16T01:01:59.298Z,10.90
2019-02-16T01:04:27.808Z,14.13
2019-02-16T01:06:56.246Z,14.00
2019-02-16T01:09:24.660Z,12.30
2019-02-16T01:11:55.772Z,9.07
2019-02-16T01:14:24.390Z,10.03
2019-02-16T01:16:52.822Z,7.40
2019-02-16T01:19:21.212Z,8.20
2019-02-16T01:21:49.626Z,6.43
2019-02-16T01:24:18.024Z,7.47
2019-02-16T01:26:46.418Z,7.80
2019-02-16T01:29:15.122Z,6.20
2019-02-16T01:31:43.510Z,7.77
2019-02-16T01:34:13.785Z,7.90
2019-02-16T01:36:42.260Z,4.47
2019-02-16T01:39:12.224Z,6.30
2019-02-16T01:41:40.619Z,5.57
2019-02-16T01:44:09.106Z,4.10
2019-02-16T01:46:37.505Z,6.63
2019-02-16T01:49:05.917Z,8.50
2019-02-16T01:51:34.347Z,5.83
2019-02-16T01:54:02.734Z,11.03
2019-02-16T01:56:31.136Z,6.57
2019-02-16T01:58:59.546Z,9.87
2019-02-16T02:01:27.939Z,6.50
2019-02-16T02:03:56.380Z,6.17
2019-02-16T02:06:25.157Z,8.10
2019-02-16T02:08:53.555Z,6.43
2019-02-16T02:11:22.005Z,5.70
2019-02-16T02:13:50.546Z,5.50
2019-02-16T02:16:18.942Z,5.27
2019-02-16T02:18:47.339Z,7.50
2019-02-16T02:21:15.884Z,5.50
2019-02-16T02:23:44.277Z,8.77
2019-02-16T02:26:12.662Z,8.53
2019-02-16T02:28:41.220Z,7.60
2019-02-16T02:31:09.614Z,8.70
2019-02-16T02:33:38.011Z,6.90
2019-02-16T02:36:06.531Z,7.33
2019-02-16T02:38:34.922Z,6.13
2019-02-16T02:41:03.321Z,6.10
2019-02-16T02:43:31.850Z,4.93
2019-02-16T02:46:00.310Z,4.23
2019-02-16T02:48:28.707Z,5.60
2019-02-16T02:50:57.333Z,7.13
2019-02-16T02:53:31.074Z,6.53
2019-02-16T02:55:55.856Z,7.57
2019-02-16T02:58:24.446Z,6.83
2019-02-16T03:00:52.807Z,7.30
2019-02-16T03:03:21.242Z,7.40
2019-02-16T03:05:49.704Z,8.87
2019-02-16T03:08:18.092Z,8.20
2019-02-16T03:10:46.484Z,5.77
2019-02-16T03:13:15.305Z,7.40
2019-02-16T03:15:43.698Z,7.03
2019-02-16T03:18:12.098Z,7.73
2019-02-16T03:20:40.558Z,9.07
2019-02-16T03:23:16.209Z,10.53
2019-02-16T03:25:50.427Z,8.97
2019-02-16T03:28:49.464Z,13.13
2019-02-16T03:31:54.223Z,9.07
2019-02-16T03:34:51.609Z,11.27
2019-02-16T03:37:57.992Z,8.20
2019-02-16T03:40:26.727Z,7.27
2019-02-16T03:42:55.121Z,12.67
2019-02-16T03:45:23.923Z,7.87
2019-02-16T03:47:55.254Z,6.00
2019-02-16T03:50:23.670Z,5.50
2019-02-16T03:52:52.113Z,6.63
2019-02-16T03:55:20.537Z,7.43
2019-02-16T03:57:48.922Z,4.07
2019-02-16T04:00:17.466Z,7.27
2019-02-16T04:02:45.865Z,5.00
2019-02-16T04:05:14.262Z,5.07
2019-02-16T04:07:42.740Z,5.97
2019-02-16T04:10:11.130Z,7.50
2019-02-16T04:12:39.551Z,6.83
2019-02-16T04:15:08.141Z,5.80
2019-02-16T04:17:36.562Z,5.87
2019-02-16T04:20:06.893Z,5.67
2019-02-16T04:22:35.318Z,4.93
2019-02-16T04:25:03.887Z,5.87
2019-02-16T04:27:33.825Z,8.33
2019-02-16T04:30:02.251Z,7.93
2019-02-16T04:32:30.645Z,7.43
2019-02-16T04:34:59.051Z,7.03
2019-02-16T04:37:27.457Z,11.57
2019-02-16T04:39:55.968Z,4.50
2019-02-16T04:42:24.423Z,5.27
2019-02-16T04:44:52.899Z,7.93
2019-02-16T04:47:21.301Z,3.83
2019-02-16T04:49:49.737Z,3.90
2019-02-16T04:52:18.155Z,4.37
2019-02-16T04:54:46.559Z,4.40
2019-02-16T04:57:14.965Z,7.40
2019-02-16T04:59:43.561Z,5.07
2019-02-16T05:02:12.017Z,5.63
2019-02-16T05:04:40.411Z,8.17
2019-02-16T05:07:09.206Z,5.00
2019-02-16T05:09:37.595Z,5.60
2019-02-16T05:12:06.059Z,4.70
2019-02-16T05:14:34.658Z,6.63
2019-02-16T05:17:03.104Z,5.60
2019-02-16T05:19:31.561Z,6.83
2019-02-16T05:22:00.009Z,14.87
2019-02-16T05:24:28.418Z,37.63
2019-02-16T05:26:56.835Z,33.23
2019-02-16T05:29:25.439Z,15.80
2019-02-16T05:31:53.953Z,7.37
2019-02-16T05:34:22.290Z,9.33
2019-02-16T05:36:50.884Z,6.23
2019-02-16T05:39:19.286Z,5.43
2019-02-16T05:41:47.684Z,4.70
2019-02-16T05:44:16.116Z,5.27
2019-02-16T05:46:46.022Z,6.53
2019-02-16T05:49:14.423Z,7.27
2019-02-16T05:51:43.001Z,6.67
2019-02-16T05:54:11.401Z,8.30
2019-02-16T05:56:39.795Z,5.20
2019-02-16T05:59:08.359Z,5.23
2019-02-16T06:01:36.797Z,7.03
2019-02-16T06:04:05.191Z,7.30
2019-02-16T06:06:33.621Z,8.07
2019-02-16T06:09:02.017Z,8.70
2019-02-16T06:11:30.415Z,6.53
2019-02-16T06:13:58.832Z,7.53
2019-02-16T06:16:27.225Z,3.87
2019-02-16T06:18:55.617Z,5.33
2019-02-16T06:21:24.460Z,6.10
2019-02-16T06:23:52.847Z,4.23
2019-02-16T06:26:21.235Z,4.23
2019-02-16T06:28:49.899Z,4.00
2019-02-16T06:31:18.288Z,6.40
2019-02-16T06:33:46.711Z,4.33
2019-02-16T06:36:16.777Z,6.20
2019-02-16T06:38:45.187Z,4.63
2019-02-16T06:41:13.574Z,4.90
2019-02-16T06:43:42.326Z,7.93
2019-02-16T06:46:10.715Z,6.47
2019-02-16T06:48:39.193Z,11.83
2019-02-16T06:51:07.768Z,13.03
2019-02-16T06:53:36.162Z,5.50
2019-02-16T06:56:06.206Z,5.17
2019-02-16T06:58:34.644Z,5.33
2019-02-16T07:01:04.546Z,5.63
2019-02-16T07:03:32.970Z,6.53
2019-02-16T07:06:01.418Z,7.80
2019-02-16T07:08:29.889Z,4.50
2019-02-16T07:10:58.280Z,5.20
2019-02-16T07:13:27.352Z,4.60
2019-02-16T07:16:13.288Z,2.97
2019-02-16T07:18:46.258Z,2.30
2019-02-16T07:21:14.667Z,2.90
2019-02-16T07:23:43.122Z,5.17
2019-02-16T07:26:11.538Z,3.10
2019-02-16T07:28:39.940Z,11.60
2019-02-16T07:31:08.333Z,5.47
2019-02-16T07:33:36.924Z,23.07
2019-02-16T07:36:05.316Z,5.87
2019-02-16T07:38:33.779Z,3.43
2019-02-16T07:41:02.393Z,3.33
2019-02-16T07:43:50.476Z,4.23
2019-02-16T07:46:20.546Z,2.90
2019-02-16T07:49:08.613Z,6.80
2019-02-16T07:51:47.285Z,4.80
2019-02-16T07:54:29.398Z,4.97
2019-02-16T07:56:59.592Z,4.93
2019-02-16T07:59:32.584Z,7.53
2019-02-16T08:02:09.206Z,7.10
2019-02-16T08:04:41.985Z,5.37
2019-02-16T08:07:28.319Z,3.07
2019-02-16T08:09:58.358Z,2.60
2019-02-16T08:12:33.857Z,3.97
2019-02-16T08:15:03.898Z,3.93
2019-02-16T08:17:50.618Z,3.33
2019-02-16T08:20:20.662Z,3.00
2019-02-16T08:22:50.702Z,2.90
2019-02-16T08:25:26.769Z,2.97
2019-02-16T08:27:56.808Z,3.33
2019-02-16T08:30:32.888Z,5.47
2019-02-16T08:33:02.922Z,4.53
2019-02-16T08:35:39.146Z,2.73
2019-02-16T08:38:25.440Z,4.10
2019-02-16T08:40:55.505Z,4.10
2019-02-16T08:43:39.763Z,3.50
2019-02-16T08:46:15.160Z,2.13
2019-02-16T08:48:51.164Z,2.53
2019-02-16T08:51:21.408Z,4.20
2019-02-16T08:53:53.855Z,2.00
2019-02-16T08:56:32.862Z,2.33
2019-02-16T08:59:08.914Z,3.90
2019-02-16T09:01:41.631Z,2.10
2019-02-16T09:04:23.818Z,6.03
2019-02-16T09:06:53.898Z,3.87
2019-02-16T09:09:35.817Z,3.30
2019-02-16T09:12:18.174Z,2.43
2019-02-16T09:15:04.480Z,3.70
2019-02-16T09:17:37.527Z,2.70
2019-02-16T09:20:11.536Z,3.00
2019-02-16T09:22:58.102Z,4.03
2019-02-16T09:25:45.986Z,3.90
2019-02-16T09:28:18.772Z,2.50
2019-02-16T09:30:48.804Z,2.70
2019-02-16T09:33:18.839Z,8.93
2019-02-16T09:35:51.700Z,4.27
2019-02-16T09:38:21.734Z,2.67
2019-02-16T09:40:51.762Z,4.17
2019-02-16T09:43:27.532Z,4.80
2019-02-16T09:45:57.574Z,1.80
2019-02-16T09:48:36.286Z,4.63
2019-02-16T09:51:21.610Z,2.10
2019-02-16T09:53:53.304Z,3.83
2019-02-16T09:56:25.794Z,3.40
2019-02-16T09:59:04.674Z,2.97
2019-02-16T10:01:37.406Z,2.83
2019-02-16T10:04:10.431Z,2.43
2019-02-16T10:06:55.477Z,4.60
2019-02-16T10:09:28.250Z,3.50
2019-02-16T10:11:58.286Z,3.10
2019-02-16T10:14:40.262Z,3.57
2019-02-16T10:17:10.302Z,2.33
2019-02-16T10:19:43.203Z,1.97
2019-02-16T10:22:13.247Z,4.63
2019-02-16T10:24:43.283Z,4.57
2019-02-16T10:27:29.596Z,3.37
2019-02-16T10:30:02.045Z,4.23
2019-02-16T10:32:32.089Z,3.17
2019-02-16T10:35:05.192Z,2.93
2019-02-16T10:37:37.939Z,3.30
2019-02-16T10:40:08.219Z,2.97
2019-02-16T10:42:38.361Z,4.70
2019-02-16T10:45:11.271Z,2.37
2019-02-16T10:47:43.743Z,4.73
2019-02-16T10:50:22.563Z,3.27
2019-02-16T10:52:52.802Z,3.10
2019-02-16T10:55:40.831Z,3.30
2019-02-16T10:58:10.899Z,2.20
2019-02-16T11:01:00.096Z,2.27
2019-02-16T11:03:45.507Z,2.53
2019-02-16T11:06:15.546Z,3.47
2019-02-16T11:09:03.667Z,3.07
2019-02-16T11:11:45.641Z,2.43
2019-02-16T11:14:24.321Z,2.90
2019-02-16T11:17:06.381Z,4.13
2019-02-16T11:19:45.303Z,4.30
2019-02-16T11:22:23.907Z,3.17
2019-02-16T11:25:09.855Z,4.73
2019-02-16T11:27:54.867Z,3.60
2019-02-16T11:30:41.258Z,3.57
2019-02-16T11:33:11.293Z,2.80
2019-02-16T11:35:47.157Z,2.90
2019-02-16T11:38:17.205Z,3.13
2019-02-16T11:40:58.642Z,3.00
2019-02-16T11:43:31.585Z,3.90
2019-02-16T11:46:01.691Z,4.37
2019-02-16T11:48:40.793Z,4.23
2019-02-16T11:51:16.749Z,2.70
2019-02-16T11:54:01.688Z,3.10
2019-02-16T11:56:34.597Z,5.13
2019-02-16T11:59:10.443Z,3.80
2019-02-16T12:01:43.218Z,5.70
2019-02-16T12:04:31.057Z,4.23
2019-02-16T12:07:09.961Z,5.53
2019-02-16T12:09:45.782Z,5.07
2019-02-16T12:12:32.142Z,4.60
2019-02-16T12:15:02.188Z,2.80
2019-02-16T12:17:32.232Z,4.50
2019-02-16T12:20:18.564Z,3.73
2019-02-16T12:22:48.700Z,2.47
2019-02-16T12:25:27.425Z,2.70
2019-02-16T12:28:00.309Z,3.27
2019-02-16T12:30:30.354Z,4.43
2019-02-16T12:33:00.752Z,2.80
2019-02-16T12:35:30.798Z,6.70
2019-02-16T12:38:00.842Z,6.70
2019-02-16T12:40:30.987Z,6.13
2019-02-16T12:43:03.769Z,3.33
2019-02-16T12:48:33.739Z,2.73
2019-02-16T12:51:03.908Z,4.20
2019-02-16T12:53:33.939Z,4.77
2019-02-16T12:56:13.297Z,4.30
2019-02-16T12:58:43.339Z,3.30
2019-02-16T13:01:13.394Z,4.13
2019-02-16T13:03:43.790Z,5.37
2019-02-16T13:06:30.239Z,3.90
2019-02-16T13:09:03.262Z,3.57
2019-02-16T13:11:39.546Z,5.20
2019-02-16T13:14:15.588Z,4.37
2019-02-16T13:16:45.639Z,5.37
2019-02-16T13:19:31.685Z,5.37
2019-02-16T13:22:01.728Z,4.90
2019-02-16T13:24:31.769Z,2.93
2019-02-16T13:27:01.842Z,3.87
2019-02-16T13:29:48.276Z,2.70
2019-02-16T13:32:24.190Z,3.80
2019-02-16T13:34:54.228Z,2.83
2019-02-16T13:37:26.709Z,2.47
2019-02-16T13:40:02.488Z,4.73
2019-02-16T13:42:48.872Z,7.17
2019-02-16T13:45:21.649Z,4.37
2019-02-16T13:47:51.696Z,4.50
2019-02-16T13:50:24.628Z,6.33
2019-02-16T13:52:54.830Z,3.80
2019-02-16T13:55:37.136Z,5.37
2019-02-16T13:58:07.361Z,6.60
2019-02-16T14:00:37.418Z,6.53
2019-02-16T14:03:16.240Z,5.10
2019-02-16T14:05:51.746Z,5.67
2019-02-16T14:08:21.820Z,4.27
2019-02-16T14:10:51.933Z,3.43
2019-02-16T14:13:27.826Z,5.03
2019-02-16T14:15:57.919Z,6.77
2019-02-16T14:18:26.335Z,4.37
2019-02-16T14:20:54.782Z,5.40
2019-02-16T14:23:23.200Z,3.87
2019-02-16T14:25:51.661Z,5.27
2019-02-16T14:28:21.700Z,3.73
2019-02-16T14:30:50.097Z,7.00
2019-02-16T14:33:22.858Z,5.57
2019-02-16T14:35:51.264Z,6.77
2019-02-16T14:38:21.316Z,5.30
2019-02-16T14:40:49.717Z,8.13
2019-02-16T14:43:18.314Z,3.73
2019-02-16T14:45:46.714Z,4.60
2019-02-16T14:48:15.115Z,2.77
2019-02-16T14:50:43.544Z,4.33
2019-02-16T14:53:11.942Z,2.53
2019-02-16T14:55:40.339Z,3.47
2019-02-16T14:58:08.859Z,2.87
2019-02-16T15:00:37.337Z,3.87
2019-02-16T15:03:05.730Z,5.00
2019-02-16T15:05:34.338Z,3.17
2019-02-16T15:08:04.255Z,3.10
2019-02-16T15:10:32.692Z,2.23
2019-02-16T15:13:01.275Z,3.87
2019-02-16T15:15:29.658Z,5.17
2019-02-16T15:17:58.051Z,6.73
2019-02-16T15:20:26.655Z,11.03
2019-02-16T15:22:55.131Z,12.40
2019-02-16T15:25:23.620Z,20.20
2019-02-16T15:27:52.407Z,10.80
2019-02-16T15:30:21.524Z,4.30
2019-02-16T15:32:49.866Z,2.53
2019-02-16T15:35:20.546Z,4.07
2019-02-16T15:37:49.127Z,2.67
2019-02-16T15:40:17.527Z,3.43
2019-02-16T15:42:46.008Z,3.80
2019-02-16T15:45:15.195Z,3.23
2019-02-16T15:47:43.548Z,3.83
2019-02-16T15:50:14.172Z,3.80
2019-02-16T15:52:42.568Z,4.53
2019-02-16T15:55:12.469Z,4.30
2019-02-16T15:57:41.351Z,2.83
2019-02-16T16:00:24.407Z,2.80
2019-02-16T16:02:52.960Z,4.73
2019-02-16T16:05:21.425Z,3.90
2019-02-16T16:07:51.465Z,3.13
2019-02-16T16:10:21.553Z,5.63
2019-02-16T16:12:51.661Z,4.17
2019-02-16T16:15:24.719Z,3.83
2019-02-16T16:17:57.493Z,5.13
2019-02-16T16:20:33.526Z,4.50
2019-02-16T16:23:12.129Z,4.03
2019-02-16T16:25:51.345Z,5.47
2019-02-16T16:28:24.245Z,5.43
2019-02-16T16:30:54.286Z,6.13
2019-02-16T16:33:24.331Z,4.73
2019-02-16T16:35:54.409Z,5.83
2019-02-16T16:38:40.650Z,8.67
2019-02-16T16:41:27.818Z,5.33
2019-02-16T16:44:12.974Z,12.40
2019-02-16T16:46:58.967Z,6.47
2019-02-16T16:49:41.081Z,5.33
2019-02-16T16:52:26.947Z,5.70
2019-02-16T16:55:05.682Z,4.70
2019-02-16T16:57:35.757Z,8.83
2019-02-16T17:00:06.535Z,14.60
2019-02-16T17:02:36.569Z,7.47
2019-02-16T17:05:11.850Z,10.93
2019-02-16T17:07:44.869Z,17.10
2019-02-16T17:10:24.344Z,11.80
2019-02-16T17:12:54.390Z,10.47
2019-02-16T17:15:30.330Z,5.50
2019-02-16T17:18:08.953Z,5.07
2019-02-16T17:20:47.998Z,6.77
2019-02-16T17:23:18.039Z,6.37
2019-02-16T17:25:48.075Z,6.87
2019-02-16T17:28:30.065Z,5.43
2019-02-16T17:31:00.106Z,5.93
2019-02-16T17:33:32.973Z,4.80
2019-02-16T17:36:05.317Z,6.97
2019-02-16T17:38:41.447Z,5.47
2019-02-16T17:41:11.475Z,6.77
2019-02-16T17:43:44.404Z,5.77
2019-02-16T17:46:32.810Z,6.87
2019-02-16T17:49:08.311Z,19.87
2019-02-16T17:51:47.733Z,7.97
2019-02-16T17:54:20.492Z,7.63
2019-02-16T17:57:06.930Z,5.00
2019-02-16T17:59:42.417Z,8.20
2019-02-16T18:02:15.267Z,5.70
2019-02-16T18:04:48.175Z,8.00
2019-02-16T18:07:34.421Z,6.00
2019-02-16T18:10:04.470Z,7.23
2019-02-16T18:12:37.403Z,5.00
2019-02-16T18:15:09.902Z,5.27
2019-02-16T18:17:49.092Z,6.13
2019-02-16T18:20:22.252Z,10.27
2019-02-16T18:22:52.293Z,7.00
2019-02-16T18:25:38.466Z,8.77
2019-02-16T18:28:08.503Z,7.63
2019-02-16T18:30:44.530Z,8.20
2019-02-16T18:33:14.639Z,9.37
2019-02-16T18:35:50.818Z,11.93
2019-02-16T18:38:23.715Z,18.20
2019-02-16T18:40:56.488Z,9.93
2019-02-16T18:43:29.203Z,9.07
2019-02-16T18:46:05.096Z,8.87
2019-02-16T18:48:41.243Z,6.37
2019-02-16T18:51:26.836Z,7.03
2019-02-16T18:54:05.849Z,6.60
2019-02-16T18:56:47.997Z,8.57
2019-02-16T18:59:18.032Z,6.80
2019-02-16T19:01:48.071Z,6.83
2019-02-16T19:04:23.864Z,6.40
2019-02-16T19:06:53.912Z,6.97
2019-02-16T19:09:23.963Z,6.57
2019-02-16T19:12:08.786Z,6.27
2019-02-16T19:14:38.871Z,6.40
2019-02-16T19:17:12.210Z,7.73
2019-02-16T19:19:42.256Z,7.67
2019-02-16T19:22:28.483Z,6.00
2019-02-16T19:25:10.632Z,5.67
2019-02-16T19:27:43.683Z,6.63
2019-02-16T19:30:13.807Z,6.57
2019-02-16T19:32:59.983Z,4.83
2019-02-16T19:35:30.017Z,7.83
2019-02-16T19:38:03.254Z,7.13
2019-02-16T19:40:33.435Z,5.10
2019-02-16T19:43:05.903Z,5.73
2019-02-16T19:45:38.969Z,6.83
2019-02-16T19:48:21.387Z,6.67
2019-02-16T19:51:00.467Z,5.60
2019-02-16T19:53:33.061Z,5.93
2019-02-16T19:56:03.116Z,12.33
2019-02-16T19:58:36.068Z,4.47
2019-02-16T20:01:15.502Z,6.03
2019-02-16T20:03:45.760Z,5.73
2019-02-16T20:06:15.806Z,4.97
2019-02-16T20:09:04.030Z,5.13
2019-02-16T20:11:39.995Z,5.10
2019-02-16T20:14:21.926Z,4.40
2019-02-16T20:16:58.030Z,4.20
2019-02-16T20:19:28.553Z,4.33
2019-02-16T20:22:16.854Z,6.67
2019-02-16T20:24:58.806Z,7.17
2019-02-16T20:27:43.769Z,4.10
2019-02-16T20:30:26.335Z,6.30
2019-02-16T20:32:59.580Z,8.13
2019-02-16T20:35:32.442Z,5.50
2019-02-16T20:38:20.039Z,3.87
2019-02-16T20:41:07.630Z,4.13
2019-02-16T20:49:22.969Z,5.07
2019-02-16T20:52:10.486Z,3.80
2019-02-16T20:54:58.041Z,4.90
2019-02-16T21:00:53.996Z,3.93
2019-02-16T21:03:41.519Z,3.80
2019-02-16T21:06:29.203Z,6.57
2019-02-16T21:09:16.723Z,5.87
2019-02-16T21:14:43.312Z,5.73
2019-02-16T21:22:56.138Z,3.43
2019-02-16T21:25:44.499Z,4.73
2019-02-16T21:33:50.200Z,3.37
2019-02-16T21:36:37.722Z,5.83
2019-02-16T21:39:46.095Z,6.10
2019-02-16T21:42:33.625Z,3.80
2019-02-16T21:45:21.172Z,4.93
2019-02-16T21:48:08.687Z,5.77
2019-02-16T21:53:31.635Z,5.80
2019-02-16T21:56:19.151Z,4.30
2019-02-16T21:59:07.642Z,4.17
2019-02-16T22:01:50.433Z,4.10
2019-02-16T22:04:38.001Z,4.20
2019-02-16T22:07:25.524Z,4.70
2019-02-16T22:12:48.465Z,4.00
2019-02-16T22:15:16.859Z,4.10
2019-02-16T22:17:45.253Z,3.67
2019-02-16T22:22:47.733Z,3.73
2019-02-16T22:27:50.023Z,3.80
2019-02-16T22:32:53.009Z,5.00
2019-02-16T22:37:55.897Z,4.57
2019-02-16T22:40:24.342Z,3.77
2019-02-16T22:42:52.740Z,3.57
2019-02-16T22:45:40.444Z,4.87
2019-02-16T22:50:57.963Z,3.27
2019-02-16T22:53:26.361Z,3.47
2019-02-16T22:55:54.771Z,6.70
2019-02-16T22:58:28.956Z,6.23
2019-02-16T23:01:33.300Z,3.87
2019-02-16T23:04:14.016Z,5.33
2019-02-16T23:06:42.403Z,5.07
2019-02-16T23:09:50.834Z,4.70
2019-02-16T23:12:19.235Z,3.93
2019-02-16T23:14:47.629Z,4.80
2019-02-16T23:17:35.494Z,3.53
2019-02-16T23:20:43.812Z,6.27
2019-02-16T23:25:46.438Z,4.57
2019-02-16T23:28:14.861Z,5.83
2019-02-16T23:31:02.455Z,4.87
2019-02-16T23:33:30.930Z,4.83
2019-02-16T23:35:59.321Z,3.83
2019-02-16T23:38:27.718Z,6.07
2019-02-16T23:46:08.760Z,3.90
2019-02-16T23:48:37.153Z,3.17
2019-02-16T23:51:05.586Z,5.63
2019-02-16T23:53:33.974Z,3.83
2019-02-16T23:56:02.372Z,4.37
2019-02-16T23:58:30.786Z,4.83
